createdAt,value
2023-04-22T00:04:16.015Z,5.5
2023-04-22T00:10:08.366Z,5.3
2023-04-22T00:15:59.977Z,5.2
2023-04-22T00:21:52.364Z,5
2023-04-22T00:27:44.384Z,4.8
2023-04-22T00:33:36.653Z,4.6
2023-04-22T00:39:28.685Z,4.4
2023-04-22T00:45:04.769Z,4.3
2023-04-22T00:50:56.945Z,4.1
2023-04-22T00:56:48.841Z,4
2023-04-22T01:02:25.385Z,3.9
2023-04-22T01:08:02.639Z,3.7
2023-04-22T01:13:39.956Z,3.6
2023-04-22T01:19:35.206Z,3.5
2023-04-22T01:25:26.363Z,3.5
2023-04-22T01:31:17.958Z,3.5
2023-04-22T01:37:10.488Z,3.4
2023-04-22T01:43:01.920Z,3.4
2023-04-22T01:48:53.865Z,3.4
2023-04-22T01:54:30.312Z,3.4
2023-04-22T02:00:06.292Z,3.5
2023-04-22T02:05:59.329Z,3.6
2023-04-22T02:11:52.000Z,3.6
2023-04-22T02:17:43.073Z,3.6
2023-04-22T02:23:35.527Z,3.6
2023-04-22T02:29:26.257Z,3.6
2023-04-22T02:35:18.367Z,3.6
2023-04-22T02:41:10.159Z,3.6
2023-04-22T02:47:01.211Z,3.5
2023-04-22T02:52:37.114Z,3.4
2023-04-22T02:58:29.243Z,3.4
2023-04-22T03:04:26.054Z,3.3
2023-04-22T03:10:17.313Z,3.3
2023-04-22T03:16:09.656Z,3.3
2023-04-22T03:22:02.021Z,3.2
2023-04-22T03:27:53.138Z,3.1
2023-04-22T03:33:45.618Z,3.1
2023-04-22T03:39:39.558Z,3
2023-04-22T03:45:32.772Z,3
2023-04-22T03:51:27.120Z,3
2023-04-22T03:57:18.921Z,3
2023-04-22T04:02:55.556Z,2.9
2023-04-22T04:08:52.608Z,3
2023-04-22T04:14:44.389Z,3.1
2023-04-22T04:20:37.262Z,3.3
2023-04-22T04:26:30.933Z,3.4
2023-04-22T04:32:07.111Z,3.5
2023-04-22T04:37:59.279Z,3.7
2023-04-22T04:43:36.001Z,3.9
2023-04-22T04:49:29.045Z,4.5
2023-04-22T04:55:20.566Z,5.3
2023-04-22T05:01:12.008Z,6.4
2023-04-22T05:07:06.114Z,7.6
2023-04-22T05:12:57.389Z,8.8
2023-04-22T05:18:49.415Z,10.1
2023-04-22T05:24:40.492Z,12.1
2023-04-22T05:30:16.762Z,14.6
2023-04-22T05:36:09.401Z,17.4
2023-04-22T05:42:04.273Z,20.2
2023-04-22T05:47:55.073Z,23.1
2023-04-22T05:53:47.278Z,26
2023-04-22T05:59:39.537Z,29.4
2023-04-22T06:05:34.395Z,32.8
2023-04-22T06:11:16.752Z,35.9
2023-04-22T06:17:08.280Z,38.9
2023-04-22T06:23:02.288Z,42.1
2023-04-22T06:28:38.952Z,45.2
2023-04-22T06:34:30.730Z,48.3
2023-04-22T06:40:21.988Z,49.7
2023-04-22T06:46:13.485Z,43.8
2023-04-22T06:52:05.469Z,45.5
2023-04-22T06:57:59.820Z,52.3
2023-04-22T07:03:37.485Z,47.8
2023-04-22T07:09:29.994Z,44.5
2023-04-22T07:15:05.932Z,51.4
2023-04-22T07:20:58.335Z,50.7
2023-04-22T07:26:49.959Z,47.7
2023-04-22T07:32:41.683Z,48.9
2023-04-22T07:38:17.779Z,49.8
2023-04-22T07:44:09.568Z,50.4
2023-04-22T07:50:01.792Z,52.8
2023-04-22T07:55:56.382Z,54.7
2023-04-22T08:01:33.755Z,56.6
2023-04-22T08:07:44.360Z,58.1
2023-04-22T08:13:36.467Z,58.5
2023-04-22T08:19:28.394Z,58.8
2023-04-22T08:25:19.464Z,60.1
2023-04-22T08:31:11.980Z,61
2023-04-22T08:36:52.737Z,61.7
2023-04-22T08:42:51.635Z,63.1
2023-04-22T08:48:46.198Z,63.9
2023-04-22T08:54:37.906Z,64.6
2023-04-22T09:00:14.455Z,64.9
2023-04-22T09:06:07.196Z,65.9
2023-04-22T09:11:45.732Z,64
2023-04-22T09:17:37.171Z,63.9
2023-04-22T09:23:28.958Z,67.4
2023-04-22T09:29:20.472Z,68
2023-04-22T09:35:12.811Z,69.3
2023-04-22T09:41:13.310Z,70.3
2023-04-22T09:47:05.532Z,59.3
2023-04-22T09:52:57.192Z,51.5
2023-04-22T09:58:48.117Z,47.6
2023-04-22T10:04:40.091Z,48.6
2023-04-22T10:10:31.203Z,61.2
2023-04-22T10:16:32.223Z,69.2
2023-04-22T10:22:08.721Z,64.6
2023-04-22T10:27:59.292Z,65.6
2023-04-22T10:33:39.354Z,67.1
2023-04-22T10:39:33.084Z,68.6
2023-04-22T10:45:25.366Z,69
2023-04-22T10:51:02.122Z,69.4
2023-04-22T10:56:58.097Z,69.3
2023-04-22T11:03:05.064Z,68.6
2023-04-22T11:08:25.922Z,68.3
2023-04-22T11:14:17.510Z,66.8
2023-04-22T11:20:09.885Z,64
2023-04-22T11:26:04.347Z,61.6
2023-04-22T11:31:56.820Z,66.4
2023-04-22T11:37:33.579Z,67.6
2023-04-22T11:43:54.874Z,59.6
2023-04-22T11:49:46.880Z,63
2023-04-22T11:55:38.332Z,67.9
2023-04-22T12:01:14.726Z,65.8
2023-04-22T12:07:09.252Z,58.9
2023-04-22T12:13:00.752Z,60.8
2023-04-22T12:18:55.062Z,63.6
2023-04-22T12:24:46.535Z,65.6
2023-04-22T12:30:39.924Z,64.3
2023-04-22T12:36:31.944Z,58.1
2023-04-22T12:42:23.994Z,59.4
2023-04-22T12:48:16.681Z,60.6
2023-04-22T12:54:08.873Z,61.3
2023-04-22T13:00:00.509Z,61.2
2023-04-22T13:05:54.291Z,60.8
2023-04-22T13:11:57.564Z,60.1
2023-04-22T13:18:05.076Z,59.4
2023-04-22T13:23:57.033Z,58.3
2023-04-22T13:29:36.339Z,58.3
2023-04-22T13:35:28.977Z,57.6
2023-04-22T13:41:21.043Z,56.6
2023-04-22T13:47:13.362Z,55.1
2023-04-22T13:53:05.987Z,53.8
2023-04-22T13:58:58.288Z,51.1
2023-04-22T14:04:35.669Z,50.6
2023-04-22T14:10:12.908Z,49.3
2023-04-22T14:15:49.258Z,48.1
2023-04-22T14:21:28.986Z,47.3
2023-04-22T14:27:20.633Z,45.8
2023-04-22T14:33:14.133Z,43.1
2023-04-22T14:39:07.720Z,40.4
2023-04-22T14:45:01.762Z,38.2
2023-04-22T14:50:53.949Z,36.3
2023-04-22T14:56:53.869Z,34.8
2023-04-22T15:02:46.530Z,33.1
2023-04-22T15:08:38.044Z,32.3
2023-04-22T15:14:29.546Z,32.1
2023-04-22T15:20:23.152Z,32.1
2023-04-22T15:26:15.372Z,32
2023-04-22T15:32:09.282Z,31.4
2023-04-22T15:38:00.480Z,30.6
2023-04-22T15:43:52.001Z,29.7
2023-04-22T15:49:45.275Z,28.8
2023-04-22T15:55:20.931Z,28
2023-04-22T16:01:34.858Z,26.9
2023-04-22T16:07:27.855Z,25.8
2023-04-22T16:13:20.004Z,25
2023-04-22T16:19:11.448Z,24.2
2023-04-22T16:25:02.305Z,23.3
2023-04-22T16:30:54.347Z,22.4
2023-04-22T16:36:29.893Z,21.5
2023-04-22T16:42:05.796Z,20.6
2023-04-22T16:47:42.009Z,19.8
2023-04-22T16:53:33.496Z,18.9
2023-04-22T16:59:24.416Z,18.1
2023-04-22T17:05:19.822Z,17.4
2023-04-22T17:11:11.406Z,16.8
2023-04-22T17:17:02.975Z,16.3
2023-04-22T17:22:54.588Z,15.8
2023-04-22T17:28:45.339Z,15.3
2023-04-22T17:34:21.066Z,14.8
2023-04-22T17:40:14.211Z,14.3
2023-04-22T17:46:18.727Z,13.9
2023-04-22T17:52:10.006Z,13.5
2023-04-22T17:58:01.576Z,13.2
2023-04-22T18:03:54.626Z,12.9
2023-04-22T18:09:45.906Z,12.6
2023-04-22T18:15:38.600Z,12.4
2023-04-22T18:21:29.370Z,12.2
2023-04-22T18:27:34.620Z,12
2023-04-22T18:33:11.396Z,11.8
2023-04-22T18:39:02.347Z,11.6
2023-04-22T18:44:37.846Z,11.5
2023-04-22T18:50:29.754Z,11.4
2023-04-22T18:56:05.089Z,11.2
2023-04-22T19:01:42.673Z,11.1
2023-04-22T19:07:35.814Z,10.9
2023-04-22T19:13:18.778Z,10.8
2023-04-22T19:19:04.400Z,10.7
2023-04-22T19:24:40.929Z,10.6
2023-04-22T19:30:17.379Z,10.6
2023-04-22T19:36:09.804Z,10.5
2023-04-22T19:41:47.932Z,10.4
2023-04-22T19:47:23.911Z,10.4
2023-04-22T19:53:15.411Z,10.3
2023-04-22T19:59:06.696Z,10.3
2023-04-22T20:05:00.718Z,10.1
2023-04-22T20:10:52.457Z,10.1
2023-04-22T20:16:44.008Z,10
2023-04-22T20:22:36.326Z,9.9
2023-04-22T20:28:28.450Z,9.8
2023-04-22T20:34:20.476Z,9.6
2023-04-22T20:40:11.874Z,9.5
2023-04-22T20:46:02.745Z,9.4
2023-04-22T20:51:57.805Z,9.3
2023-04-22T20:58:01.282Z,9.1
2023-04-22T21:03:53.646Z,8.9
2023-04-22T21:09:46.466Z,8.8
2023-04-22T21:15:39.431Z,8.7
2023-04-22T21:21:31.062Z,8.5
2023-04-22T21:27:22.866Z,8.4
2023-04-22T21:33:26.325Z,8.3
2023-04-22T21:39:20.262Z,8.1
2023-04-22T21:45:12.419Z,8
2023-04-22T21:50:47.714Z,7.8
2023-04-22T21:56:38.682Z,7.6
2023-04-22T22:02:15.103Z,7.4
2023-04-22T22:07:55.409Z,7.1
2023-04-22T22:13:58.280Z,6.9
2023-04-22T22:19:51.723Z,6.6
2023-04-22T22:25:43.369Z,6.4
2023-04-22T22:31:35.290Z,6.2
2023-04-22T22:37:27.659Z,6
2023-04-22T22:43:19.283Z,5.8
2023-04-22T22:49:12.567Z,5.5
2023-04-22T22:55:03.926Z,5.3
2023-04-22T23:00:55.609Z,5.1
2023-04-22T23:06:49.766Z,4.9
2023-04-22T23:12:25.811Z,4.8
2023-04-22T23:18:17.178Z,4.6
2023-04-22T23:24:08.193Z,4.4
2023-04-22T23:29:59.546Z,4.3
2023-04-22T23:35:51.010Z,4.2
2023-04-22T23:41:42.923Z,4.1
2023-04-22T23:47:35.164Z,4
2023-04-22T23:53:11.477Z,3.9
2023-04-22T23:59:02.991Z,3.8
